Time;durP1;ratioP1;P1;durP2;ratioP2;P2;SDS_P1;SDS_P2;PMS_P1;PMS_P2;Temp;Humidity;BMP_temperature;BMP_pressure;BME280_temperature;BME280_humidity;BME280_pressure;Samples;Min_cycle;Max_cycle;Signal;HPM_P1;HPM_P2
2022/01/12 00:00:21;;;;;;;12.30;8.55;;;2.10;73.90;;;;;;4979020;28;20144;-69
2022/01/12 00:02:47;;;;;;;13.60;8.77;;;2.10;74.00;;;;;;4978924;28;20038;-69
2022/01/12 00:05:15;;;;;;;12.90;8.80;;;2.10;74.00;;;;;;4979960;28;20053;-68
2022/01/12 00:07:41;;;;;;;12.90;9.10;;;2.10;74.10;;;;;;4980137;28;20037;-69
2022/01/12 00:10:07;;;;;;;13.48;8.63;;;2.10;74.10;;;;;;4978900;28;20038;-69
2022/01/12 00:12:32;;;;;;;16.10;9.63;;;2.10;74.20;;;;;;4979285;28;20061;-68
2022/01/12 00:14:58;;;;;;;13.48;9.52;;;2.10;74.20;;;;;;4978316;28;20035;-68
2022/01/12 00:17:23;;;;;;;14.70;9.48;;;2.10;74.30;;;;;;4979096;28;20065;-69
2022/01/12 00:19:49;;;;;;;11.73;8.48;;;2.10;74.30;;;;;;4978798;28;20061;-68
2022/01/12 00:22:15;;;;;;;14.77;9.30;;;2.10;74.30;;;;;;4980413;28;20125;-69
2022/01/12 00:25:12;;;;;;;11.43;8.18;;;2.10;74.30;;;;;;4979745;28;20324;-68
2022/01/12 00:33:12;;;;;;;12.90;8.93;;;2.10;74.40;;;;;;4980085;28;19925;-68
2022/01/12 00:35:41;;;;;;;11.32;8.30;;;2.10;74.30;;;;;;4976597;28;20426;-69
2022/01/12 00:38:08;;;;;;;13.73;9.10;;;2.10;74.40;;;;;;4980624;28;20415;-68
2022/01/12 00:40:38;;;;;;;14.50;9.52;;;2.10;74.40;;;;;;4973427;28;20050;-69
2022/01/12 00:43:04;;;;;;;13.07;8.82;;;2.10;74.40;;;;;;4977040;28;20041;-69
2022/01/12 00:45:32;;;;;;;14.27;9.55;;;2.10;74.40;;;;;;4974191;28;20078;-69
2022/01/12 00:47:58;;;;;;;12.05;8.90;;;2.10;74.50;;;;;;4975905;28;20035;-68
2022/01/12 00:50:23;;;;;;;12.85;9.07;;;2.10;74.50;;;;;;4973675;28;20049;-68
2022/01/12 00:52:50;;;;;;;14.15;9.48;;;2.10;74.50;;;;;;4976643;28;20038;-68
2022/01/12 00:55:16;;;;;;;13.80;9.30;;;2.10;75.40;;;;;;4974965;28;20037;-67
2022/01/12 00:57:42;;;;;;;15.27;10.02;;;2.10;74.60;;;;;;4975560;28;20038;-69
2022/01/12 01:00:09;;;;;;;14.13;9.13;;;2.10;74.60;;;;;;4972984;28;20082;-68
2022/01/12 01:02:34;;;;;;;13.45;9.55;;;2.20;74.60;;;;;;4975441;28;20085;-68
2022/01/12 01:05:01;;;;;;;13.65;9.02;;;2.20;74.60;;;;;;4972844;28;20043;-68
2022/01/12 01:07:27;;;;;;;13.13;9.10;;;2.20;74.60;;;;;;4972770;28;20045;-68
2022/01/12 01:10:07;;;;;;;13.93;9.23;;;2.20;74.40;;;;;;4975632;28;20039;-65
2022/01/12 01:12:35;;;;;;;14.32;9.95;;;2.20;74.50;;;;;;4970125;28;20096;-68
2022/01/12 01:15:09;;;;;;;14.85;9.93;;;2.20;74.60;;;;;;4976753;28;20035;-69
2022/01/12 01:25:43;;;;;;;12.82;9.15;;;2.20;74.30;;;;;;4977981;28;20089;-68
2022/01/12 01:28:10;;;;;;;15.15;9.75;;;2.20;74.20;;;;;;4978743;28;20043;-69
2022/01/12 01:30:38;;;;;;;13.23;9.38;;;2.20;74.20;;;;;;4978880;28;20045;-68
2022/01/12 01:33:07;;;;;;;13.10;9.45;;;2.20;74.40;;;;;;4977474;28;20066;-67
2022/01/12 01:35:36;;;;;;;13.82;9.18;;;2.20;74.40;;;;;;4975174;28;20046;-69
2022/01/12 01:38:04;;;;;;;14.57;9.38;;;2.20;74.40;;;;;;4973329;28;20034;-69
2022/01/12 01:40:31;;;;;;;13.23;9.38;;;2.20;74.40;;;;;;4974968;28;20045;-68
2022/01/12 01:53:38;;;;;;;15.57;10.10;;;2.20;74.10;;;;;;4975256;28;20061;-67
2022/01/12 01:56:04;;;;;;;14.27;9.93;;;2.20;74.10;;;;;;4973229;28;20286;-68
2022/01/12 01:58:30;;;;;;;14.20;9.90;;;2.20;74.00;;;;;;4976415;28;20035;-68
2022/01/12 02:00:56;;;;;;;15.20;10.57;;;2.20;74.00;;;;;;4976628;28;20037;-68
2022/01/12 02:03:26;;;;;;;16.02;10.55;;;2.20;74.00;;;;;;4976313;28;20039;-68
2022/01/12 02:05:51;;;;;;;16.10;10.95;;;2.20;74.00;;;;;;4976446;28;20093;-69
2022/01/12 02:08:17;;;;;;;15.57;10.15;;;2.20;74.10;;;;;;4977158;28;20066;-68
2022/01/12 02:10:43;;;;;;;14.43;10.07;;;2.20;74.10;;;;;;4974885;28;20490;-68
2022/01/12 02:13:09;;;;;;;14.38;10.00;;;2.20;74.20;;;;;;4973429;28;20062;-69
2022/01/12 02:15:37;;;;;;;12.95;9.43;;;2.20;75.00;;;;;;4973300;28;20038;-71
2022/01/12 02:18:15;;;;;;;14.70;10.05;;;2.20;75.00;;;;;;4976845;28;20038;-68
2022/01/12 02:40:09;;;;;;;14.23;9.38;;;2.20;73.90;;;;;;4972938;28;20149;-67
2022/01/12 02:42:38;;;;;;;14.23;9.18;;;2.20;74.00;;;;;;4977729;28;20034;-69
2022/01/12 02:50:57;;;;;;;15.70;11.15;;;2.20;74.00;;;;;;4979001;28;20045;-68
2022/01/12 02:53:42;;;;;;;17.35;12.50;;;2.20;73.80;;;;;;4972251;28;20038;-69
2022/01/12 02:56:16;;;;;;;17.98;12.55;;;2.20;73.70;;;;;;4974406;28;20031;-68
2022/01/12 02:58:44;;;;;;;18.77;12.80;;;2.10;73.70;;;;;;4977513;28;20749;-68
2022/01/12 03:01:36;;;;;;;21.73;13.40;;;2.00;73.90;;;;;;4975074;28;21843;-68
2022/01/12 03:04:04;;;;;;;19.98;13.18;;;2.10;74.10;;;;;;4979305;28;20034;-68
2022/01/12 03:06:34;;;;;;;21.38;13.77;;;1.90;74.20;;;;;;4974588;28;20035;-68
2022/01/12 03:09:01;;;;;;;22.42;14.65;;;1.80;74.30;;;;;;4976665;28;20038;-69
2022/01/12 03:11:27;;;;;;;21.08;14.02;;;1.70;74.70;;;;;;4975740;28;20465;-68
2022/01/12 03:13:54;;;;;;;20.33;14.30;;;1.60;75.00;;;;;;4977770;28;20054;-68
2022/01/12 03:16:24;;;;;;;24.90;15.02;;;1.50;75.30;;;;;;4976977;28;20085;-69
2022/01/12 03:18:52;;;;;;;22.63;14.90;;;1.40;75.80;;;;;;4977165;28;20050;-68
2022/01/12 03:21:20;;;;;;;21.80;14.48;;;1.30;76.00;;;;;;4978818;28;20458;-68
2022/01/12 03:23:46;;;;;;;23.30;14.68;;;1.20;76.10;;;;;;4978646;28;20030;-68
2022/01/12 03:26:12;;;;;;;22.05;14.77;;;1.20;76.60;;;;;;4980566;28;20042;-67
2022/01/12 03:28:39;;;;;;;22.42;15.27;;;1.10;76.70;;;;;;4977702;28;20396;-68
2022/01/12 03:39:11;;;;;;;23.58;14.00;;;1.10;77.30;;;;;;4972367;28;20765;-69
2022/01/12 03:41:38;;;;;;;23.08;14.60;;;1.10;77.30;;;;;;4975560;28;20035;-68
2022/01/12 03:44:07;;;;;;;21.70;13.85;;;1.10;77.50;;;;;;4978723;28;20125;-68
2022/01/12 03:46:45;;;;;;;21.23;14.30;;;1.20;77.50;;;;;;4975497;28;20466;-67
2022/01/12 03:49:11;;;;;;;20.95;13.43;;;1.20;77.60;;;;;;4976479;28;20050;-68
2022/01/12 03:51:37;;;;;;;19.38;13.50;;;1.20;77.40;;;;;;4972230;28;20463;-68
2022/01/12 03:54:03;;;;;;;19.92;13.57;;;1.30;77.40;;;;;;4970123;28;20067;-68
2022/01/12 03:56:29;;;;;;;20.60;13.88;;;1.40;77.50;;;;;;4971896;28;20116;-68
2022/01/12 03:58:55;;;;;;;21.25;14.68;;;1.40;77.40;;;;;;4976349;28;20042;-68
2022/01/12 04:01:21;;;;;;;21.45;14.93;;;1.40;77.30;;;;;;4975835;28;20131;-67
2022/01/12 04:03:57;;;;;;;22.98;14.32;;;1.50;77.30;;;;;;4977209;28;20425;-69
2022/01/12 04:09:07;;;;;;;22.58;14.77;;;1.50;77.90;;;;;;4972536;28;20256;-68
2022/01/12 04:11:33;;;;;;;20.80;14.15;;;1.60;77.10;;;;;;4972839;28;20042;-66
2022/01/12 04:13:59;;;;;;;20.65;12.70;;;1.60;76.90;;;;;;4974036;28;20031;-68
2022/01/12 04:16:24;;;;;;;22.67;13.60;;;1.60;76.80;;;;;;4975181;28;20034;-67
2022/01/12 04:18:50;;;;;;;19.65;13.25;;;1.70;76.80;;;;;;4978027;28;20034;-68
2022/01/12 04:21:17;;;;;;;18.83;11.60;;;1.70;76.60;;;;;;4978758;28;20042;-68
2022/01/12 04:23:43;;;;;;;17.60;11.85;;;1.70;76.30;;;;;;4977634;28;20030;-68
2022/01/12 04:26:12;;;;;;;19.73;13.07;;;1.70;76.00;;;;;;4976200;28;20035;-69
2022/01/12 04:28:40;;;;;;;20.67;13.25;;;1.70;75.90;;;;;;4974876;28;20057;-67
2022/01/12 04:31:07;;;;;;;20.45;13.23;;;1.70;75.90;;;;;;4977408;28;20035;-68
2022/01/12 04:33:35;;;;;;;22.75;13.73;;;1.70;76.00;;;;;;4978037;28;20038;-68
2022/01/12 04:36:00;;;;;;;21.10;13.55;;;1.70;76.00;;;;;;4974807;28;20670;-68
2022/01/12 04:38:29;;;;;;;19.40;12.18;;;1.80;76.10;;;;;;4971197;28;20197;-67
2022/01/12 04:40:56;;;;;;;16.98;10.82;;;1.80;76.00;;;;;;4977391;28;20031;-68
2022/01/12 04:43:25;;;;;;;15.40;10.77;;;1.80;75.70;;;;;;4975025;28;20027;-68
2022/01/12 04:50:52;;;;;;;16.38;11.45;;;1.80;75.20;;;;;;4972673;28;20030;-68
2022/01/12 04:53:19;;;;;;;19.65;11.93;;;1.70;75.10;;;;;;4971349;28;20077;-68
2022/01/12 04:55:46;;;;;;;19.17;12.15;;;1.80;75.20;;;;;;4976763;28;20034;-68
2022/01/12 04:58:12;;;;;;;17.92;12.23;;;1.70;75.10;;;;;;4972384;28;20042;-67
2022/01/12 05:00:38;;;;;;;17.33;11.70;;;1.70;75.20;;;;;;4973457;28;20038;-69
2022/01/12 05:08:48;;;;;;;16.40;10.75;;;1.70;75.30;;;;;;4973300;28;20554;-69
2022/01/12 05:13:59;;;;;;;17.48;10.75;;;1.70;74.90;;;;;;4976270;28;20456;-68
2022/01/12 05:16:26;;;;;;;17.17;11.07;;;1.70;74.90;;;;;;4974236;28;20042;-67
2022/01/12 05:18:53;;;;;;;17.88;11.48;;;1.70;74.80;;;;;;4972819;28;20061;-68
2022/01/12 05:21:21;;;;;;;17.45;10.43;;;1.70;74.90;;;;;;4975307;28;20124;-68
2022/01/12 05:23:47;;;;;;;16.33;10.10;;;1.70;74.80;;;;;;4974452;28;20544;-69
2022/01/12 05:26:13;;;;;;;16.45;10.75;;;1.70;74.60;;;;;;4973161;28;20042;-68
2022/01/12 05:28:39;;;;;;;17.50;11.40;;;1.70;74.60;;;;;;4977791;28;20046;-67
2022/01/12 05:31:07;;;;;;;18.75;11.88;;;1.70;74.70;;;;;;4972308;28;20585;-69
2022/01/12 05:33:33;;;;;;;22.00;13.18;;;1.70;74.60;;;;;;4975788;28;20181;-69
2022/01/12 05:36:01;;;;;;;19.17;12.10;;;1.70;74.60;;;;;;4975643;28;20557;-68
2022/01/12 05:38:28;;;;;;;20.27;12.27;;;1.70;74.60;;;;;;4974530;28;20088;-68
2022/01/12 05:40:57;;;;;;;18.83;12.05;;;1.70;74.60;;;;;;4973418;28;20035;-69
2022/01/12 05:43:26;;;;;;;17.70;11.50;;;1.70;74.60;;;;;;4975127;28;20490;-69
2022/01/12 05:45:54;;;;;;;17.33;11.23;;;1.60;74.50;;;;;;4974831;28;20035;-68
2022/01/12 05:50:50;;;;;;;18.65;11.35;;;1.60;74.50;;;;;;4975474;28;20093;-68
2022/01/12 05:53:17;;;;;;;16.75;11.20;;;1.60;74.50;;;;;;4977775;28;20038;-68
2022/01/12 05:55:43;;;;;;;17.23;11.45;;;1.60;74.50;;;;;;4975346;28;20070;-69
2022/01/12 05:58:09;;;;;;;20.00;12.57;;;1.60;74.50;;;;;;4975935;28;20133;-68
2022/01/12 06:00:35;;;;;;;18.10;11.90;;;1.60;74.50;;;;;;4974288;28;20517;-68
2022/01/12 06:03:01;;;;;;;20.50;13.63;;;1.60;74.50;;;;;;4976438;28;20073;-69
2022/01/12 06:05:28;;;;;;;18.98;12.45;;;1.60;74.60;;;;;;4979250;28;20069;-69
2022/01/12 06:07:54;;;;;;;19.10;12.90;;;1.50;74.60;;;;;;4978223;28;20081;-69
2022/01/12 06:10:22;;;;;;;19.13;12.02;;;1.60;74.70;;;;;;4979453;28;20039;-69
2022/01/12 06:12:48;;;;;;;17.52;10.75;;;1.60;74.60;;;;;;4976839;28;20122;-67
2022/01/12 06:15:14;;;;;;;18.30;11.93;;;1.50;74.40;;;;;;4978304;28;20140;-68
2022/01/12 06:17:40;;;;;;;19.10;12.25;;;1.60;74.50;;;;;;4981732;28;20054;-69
2022/01/12 06:20:06;;;;;;;18.00;12.25;;;1.60;74.50;;;;;;4981793;28;20046;-69
2022/01/12 06:22:32;;;;;;;20.27;12.82;;;1.60;74.50;;;;;;4982194;28;20553;-69
2022/01/12 06:24:59;;;;;;;18.85;12.25;;;1.60;74.80;;;;;;4981633;28;20035;-68
2022/01/12 06:27:30;;;;;;;17.33;10.95;;;1.60;74.50;;;;;;4982731;28;20034;-69
2022/01/12 06:32:40;;;;;;;19.45;11.73;;;1.60;74.40;;;;;;4982261;28;20668;-68
2022/01/12 06:35:07;;;;;;;20.25;12.75;;;1.60;74.30;;;;;;4981034;28;20070;-69
2022/01/12 06:37:32;;;;;;;18.92;11.75;;;1.60;74.30;;;;;;4981483;28;20035;-69
2022/01/12 06:39:58;;;;;;;17.92;11.90;;;1.60;74.20;;;;;;4981491;28;20034;-67
2022/01/12 06:42:25;;;;;;;18.00;11.70;;;1.50;74.10;;;;;;4982127;28;20321;-68
2022/01/12 06:44:51;;;;;;;17.55;11.48;;;1.50;74.10;;;;;;4981707;28;20062;-68
2022/01/12 06:47:18;;;;;;;18.27;12.13;;;1.50;74.10;;;;;;4981648;28;20061;-68
2022/01/12 06:49:44;;;;;;;20.63;12.45;;;1.50;74.10;;;;;;4980637;28;20042;-68
2022/01/12 06:52:10;;;;;;;18.38;11.90;;;1.50;74.00;;;;;;4981449;28;20039;-68
2022/01/12 06:54:35;;;;;;;18.70;11.27;;;1.50;74.00;;;;;;4981294;28;20358;-68
2022/01/12 06:57:01;;;;;;;19.05;12.68;;;1.50;74.10;;;;;;4980960;28;20127;-69
2022/01/12 06:59:27;;;;;;;18.08;11.98;;;1.50;74.10;;;;;;4980840;28;20069;-68
2022/01/12 07:01:53;;;;;;;17.90;11.60;;;1.50;74.10;;;;;;4981539;28;20057;-68
2022/01/12 07:04:20;;;;;;;16.13;11.15;;;1.50;74.10;;;;;;4980816;28;20062;-68
2022/01/12 07:06:45;;;;;;;17.55;11.23;;;1.50;74.00;;;;;;4980941;28;20406;-69
2022/01/12 07:09:11;;;;;;;17.52;11.02;;;1.50;73.90;;;;;;4981486;28;20038;-68
2022/01/12 07:11:37;;;;;;;17.92;11.43;;;1.50;73.80;;;;;;4982086;28;20060;-68
2022/01/12 07:14:03;;;;;;;15.93;10.77;;;1.50;73.80;;;;;;4980640;28;20066;-69
2022/01/12 07:16:28;;;;;;;16.80;10.57;;;1.50;73.80;;;;;;4981041;28;20034;-68
2022/01/12 07:18:58;;;;;;;15.20;10.48;;;1.40;73.80;;;;;;4980566;28;20061;-68
2022/01/12 07:21:25;;;;;;;18.73;11.98;;;1.50;74.00;;;;;;4981043;28;20066;-68
2022/01/12 07:23:54;;;;;;;16.92;11.55;;;1.50;74.00;;;;;;4980898;28;20031;-69
2022/01/12 07:26:21;;;;;;;17.45;10.82;;;1.50;74.00;;;;;;4980973;28;20038;-68
2022/01/12 07:28:47;;;;;;;16.48;11.07;;;1.50;74.00;;;;;;4975908;28;20133;-68
2022/01/12 07:31:13;;;;;;;18.77;11.45;;;1.50;73.90;;;;;;4977628;28;20489;-68
2022/01/12 07:33:38;;;;;;;14.80;10.30;;;1.50;73.80;;;;;;4979190;28;20526;-68
2022/01/12 07:36:04;;;;;;;17.27;11.13;;;1.50;73.80;;;;;;4977767;28;20129;-67
2022/01/12 07:38:30;;;;;;;18.08;12.27;;;1.50;73.80;;;;;;4973940;28;20045;-68
2022/01/12 07:40:56;;;;;;;20.75;12.52;;;1.50;73.80;;;;;;4980675;28;20033;-69
2022/01/12 07:43:21;;;;;;;19.92;11.63;;;1.50;73.70;;;;;;4979669;28;20023;-69
2022/01/12 07:45:47;;;;;;;17.63;11.57;;;1.50;73.70;;;;;;4980488;28;20413;-68
2022/01/12 07:48:13;;;;;;;17.27;11.40;;;1.50;73.70;;;;;;4977652;28;20117;-68
2022/01/12 07:50:39;;;;;;;17.80;11.70;;;1.50;73.80;;;;;;4976110;28;20144;-68
2022/01/12 07:53:05;;;;;;;18.13;12.15;;;1.50;73.80;;;;;;4977904;28;20034;-68
2022/01/12 07:55:31;;;;;;;18.17;12.07;;;1.50;73.80;;;;;;4976489;28;20034;-69
2022/01/12 07:57:56;;;;;;;22.10;12.98;;;1.50;73.90;;;;;;4976276;28;20027;-68
2022/01/12 08:00:23;;;;;;;20.15;12.85;;;1.50;73.90;;;;;;4977471;28;20113;-68
2022/01/12 08:02:51;;;;;;;21.02;13.23;;;1.50;73.90;;;;;;4974460;28;20039;-67
2022/01/12 08:05:18;;;;;;;18.73;12.90;;;1.60;73.90;;;;;;4974964;28;20165;-69
2022/01/12 08:07:45;;;;;;;18.02;12.15;;;1.60;73.90;;;;;;4975496;28;20544;-68
2022/01/12 08:10:10;;;;;;;18.98;12.30;;;1.60;73.80;;;;;;4973620;28;20474;-68
2022/01/12 08:12:37;;;;;;;20.05;12.48;;;1.60;73.80;;;;;;4973906;28;20133;-69
2022/01/12 08:15:05;;;;;;;21.27;12.88;;;1.60;73.60;;;;;;4977144;28;20038;-69
2022/01/12 08:17:31;;;;;;;21.50;12.88;;;1.70;73.60;;;;;;4977305;28;20035;-68
2022/01/12 08:19:58;;;;;;;18.88;12.15;;;1.60;73.40;;;;;;4977289;28;20055;-69
2022/01/12 08:22:23;;;;;;;19.02;12.43;;;1.60;73.40;;;;;;4976798;28;20042;-69
2022/01/12 08:24:49;;;;;;;18.20;11.73;;;1.60;73.30;;;;;;4976478;28;20270;-68
2022/01/12 08:27:15;;;;;;;18.02;11.68;;;1.60;73.30;;;;;;4977845;28;20502;-69
2022/01/12 08:29:40;;;;;;;18.02;12.15;;;1.60;73.20;;;;;;4978074;28;20038;-67
2022/01/12 08:32:06;;;;;;;20.23;12.70;;;1.60;72.90;;;;;;4977505;28;20534;-68
2022/01/12 08:34:32;;;;;;;20.52;13.05;;;1.60;73.20;;;;;;4976812;28;20113;-68
2022/01/12 08:36:58;;;;;;;19.63;12.60;;;1.60;73.30;;;;;;4976662;28;20565;-68
2022/01/12 08:39:24;;;;;;;18.95;12.57;;;1.60;73.30;;;;;;4975354;28;20042;-69
2022/01/12 08:41:49;;;;;;;20.02;12.73;;;1.60;73.20;;;;;;4975866;28;20455;-68
2022/01/12 08:44:15;;;;;;;19.08;12.52;;;1.60;73.20;;;;;;4975515;28;20038;-68
2022/01/12 08:46:41;;;;;;;20.00;12.63;;;1.70;74.10;;;;;;4975548;28;20138;-69
2022/01/12 08:49:08;;;;;;;20.50;13.20;;;1.70;73.20;;;;;;4978138;28;20043;-68
2022/01/12 08:51:35;;;;;;;18.67;12.43;;;1.70;73.20;;;;;;4976313;28;20441;-68
2022/01/12 08:54:00;;;;;;;20.55;13.18;;;1.70;73.10;;;;;;4978416;28;20038;-69
2022/01/12 08:56:26;;;;;;;20.77;12.77;;;1.70;72.90;;;;;;4976343;28;20034;-69
2022/01/12 08:58:52;;;;;;;20.85;12.93;;;1.70;72.80;;;;;;4974585;28;20042;-68
2022/01/12 09:01:18;;;;;;;21.98;13.38;;;1.70;73.00;;;;;;4973705;28;20066;-66
2022/01/12 09:03:44;;;;;;;20.08;12.73;;;1.80;73.10;;;;;;4974242;28;20034;-69
2022/01/12 09:06:10;;;;;;;22.15;13.55;;;1.80;73.10;;;;;;4976295;28;20039;-69
2022/01/12 09:08:40;;;;;;;22.52;12.98;;;1.80;73.00;;;;;;4977848;28;20037;-66
2022/01/12 09:11:07;;;;;;;19.75;12.43;;;1.80;72.70;;;;;;4972430;28;20129;-68
2022/01/12 09:13:33;;;;;;;22.75;12.68;;;1.80;72.70;;;;;;4975311;28;20043;-69
2022/01/12 09:16:00;;;;;;;22.52;14.05;;;1.80;72.80;;;;;;4975263;28;20422;-68
2022/01/12 09:18:26;;;;;;;21.90;13.50;;;1.80;72.80;;;;;;4978214;28;20050;-69
2022/01/12 09:20:53;;;;;;;22.75;13.77;;;1.80;72.90;;;;;;4977191;28;20023;-68
2022/01/12 09:23:19;;;;;;;21.88;13.48;;;1.80;73.00;;;;;;4978180;28;20530;-68
2022/01/12 09:25:45;;;;;;;25.88;14.07;;;1.80;72.90;;;;;;4977369;28;20040;-69
2022/01/12 09:28:11;;;;;;;23.95;14.32;;;1.80;72.70;;;;;;4978189;28;20383;-68
2022/01/12 09:30:37;;;;;;;22.52;13.68;;;1.80;72.70;;;;;;4976786;28;20093;-68
2022/01/12 09:33:03;;;;;;;23.23;13.65;;;1.80;72.70;;;;;;4977266;28;20517;-69
2022/01/12 09:35:30;;;;;;;23.08;14.10;;;1.80;72.90;;;;;;4976369;28;20035;-68
2022/01/12 09:37:55;;;;;;;23.38;14.13;;;1.90;73.00;;;;;;4978250;28;20430;-69
2022/01/12 09:40:22;;;;;;;22.35;13.85;;;1.80;73.00;;;;;;4978118;28;20093;-68
2022/01/12 09:42:49;;;;;;;22.73;13.43;;;1.90;73.00;;;;;;4975917;28;21112;-68
2022/01/12 09:45:18;;;;;;;22.77;14.13;;;2.00;73.00;;;;;;4977502;28;20038;-68
2022/01/12 09:47:47;;;;;;;22.40;13.95;;;2.00;72.90;;;;;;4979481;28;20038;-69
2022/01/12 09:50:23;;;;;;;23.02;12.77;;;2.00;72.80;;;;;;4979482;28;20039;-68
2022/01/12 09:52:50;;;;;;;22.33;12.68;;;2.00;73.30;;;;;;4982389;28;20117;-68
2022/01/12 09:55:16;;;;;;;20.58;12.68;;;1.90;72.30;;;;;;4983530;28;20030;-69
2022/01/12 09:57:42;;;;;;;22.23;13.57;;;2.00;72.40;;;;;;4983294;28;20551;-67
2022/01/12 10:00:09;;;;;;;21.20;13.43;;;2.00;72.40;;;;;;4982846;28;20069;-68
2022/01/12 10:02:35;;;;;;;22.25;13.18;;;2.00;72.40;;;;;;4983072;28;20517;-69
2022/01/12 10:05:06;;;;;;;22.08;12.80;;;2.00;72.40;;;;;;4980276;28;20342;-68
2022/01/12 10:07:32;;;;;;;25.17;14.13;;;1.90;72.20;;;;;;4978114;28;20446;-69
2022/01/12 10:10:10;;;;;;;21.42;13.43;;;2.00;72.20;;;;;;4980001;28;20518;-69
2022/01/12 10:12:36;;;;;;;22.00;13.13;;;1.90;72.10;;;;;;4972746;28;20141;-69
2022/01/12 10:15:10;;;;;;;23.75;13.70;;;1.90;72.20;;;;;;4981179;28;20494;-69
2022/01/12 10:17:37;;;;;;;23.60;13.97;;;2.00;72.00;;;;;;4982004;28;20524;-69
2022/01/12 10:20:08;;;;;;;24.58;14.63;;;2.00;72.10;;;;;;4978154;28;20302;-68
2022/01/12 10:22:34;;;;;;;22.58;12.98;;;2.00;72.20;;;;;;4982002;28;20058;-69
2022/01/12 10:25:13;;;;;;;19.95;13.10;;;2.00;72.40;;;;;;4982147;28;20054;-68
2022/01/12 10:27:40;;;;;;;21.80;13.35;;;2.10;72.70;;;;;;4977400;28;20041;-68
2022/01/12 10:30:06;;;;;;;24.23;14.18;;;2.20;72.70;;;;;;4982871;28;20062;-68
2022/01/12 10:32:32;;;;;;;22.73;14.30;;;2.20;72.60;;;;;;4978169;28;20038;-69
2022/01/12 10:35:00;;;;;;;24.33;13.77;;;2.30;72.40;;;;;;4977529;28;20035;-68
2022/01/12 10:37:26;;;;;;;23.02;14.65;;;2.30;72.30;;;;;;4974281;28;20038;-69
2022/01/12 10:39:54;;;;;;;22.13;14.80;;;2.40;71.90;;;;;;4976480;28;20398;-69
2022/01/12 10:42:22;;;;;;;25.52;14.48;;;2.40;70.60;;;;;;4978993;28;20229;-69
2022/01/12 10:44:54;;;;;;;25.00;14.25;;;2.40;70.50;;;;;;4987274;28;20042;-69
2022/01/12 10:47:26;;;;;;;24.48;15.23;;;2.30;70.60;;;;;;4976354;28;20420;-69
2022/01/12 10:49:55;;;;;;;24.45;14.15;;;2.30;70.60;;;;;;4985654;28;20121;-68
2022/01/12 10:52:49;;;;;;;22.73;13.70;;;2.30;71.00;;;;;;4982686;28;20034;-64
2022/01/12 10:55:15;;;;;;;22.08;13.13;;;2.30;71.00;;;;;;4981445;28;20031;-69
2022/01/12 10:57:44;;;;;;;25.40;14.50;;;2.30;71.50;;;;;;4982247;28;20065;-68
2022/01/12 11:00:18;;;;;;;24.10;14.88;;;2.40;71.40;;;;;;4980975;28;20134;-69
2022/01/12 11:02:55;;;;;;;22.80;13.85;;;2.40;71.30;;;;;;4981159;28;20143;-69
2022/01/12 11:05:24;;;;;;;22.83;14.15;;;2.40;71.50;;;;;;4982038;28;20121;-70
2022/01/12 11:07:51;;;;;;;22.27;13.82;;;2.50;72.00;;;;;;4981919;28;20498;-69
2022/01/12 11:10:17;;;;;;;25.73;15.50;;;2.40;71.00;;;;;;4982031;28;20128;-69
2022/01/12 11:12:43;;;;;;;24.75;14.50;;;2.40;70.80;;;;;;4980321;28;20061;-68
2022/01/12 11:15:11;;;;;;;22.67;13.85;;;2.50;71.00;;;;;;4982902;28;20030;-68
2022/01/12 11:17:38;;;;;;;24.83;15.13;;;2.40;71.20;;;;;;4981779;28;20043;-69
2022/01/12 11:20:19;;;;;;;26.88;15.38;;;2.50;71.20;;;;;;4981887;28;20045;-69
2022/01/12 11:23:03;;;;;;;22.77;14.45;;;2.50;70.60;;;;;;4981492;28;20033;-69
2022/01/12 11:25:43;;;;;;;27.02;15.43;;;2.50;70.40;;;;;;4977903;28;20121;-69
2022/01/12 11:28:26;;;;;;;22.90;14.20;;;2.50;70.40;;;;;;4977256;28;20053;-69
2022/01/12 11:30:51;;;;;;;22.05;14.10;;;2.50;69.80;;;;;;4973721;28;20038;-68
2022/01/12 11:33:23;;;;;;;24.67;15.40;;;2.40;70.70;;;;;;4977289;28;20089;-69
2022/01/12 11:35:50;;;;;;;22.60;14.15;;;2.40;70.80;;;;;;4972125;28;20038;-68
2022/01/12 11:38:29;;;;;;;24.98;14.65;;;2.40;71.20;;;;;;4975477;28;20034;-69
2022/01/12 11:40:56;;;;;;;25.05;15.02;;;2.50;70.90;;;;;;4973358;28;20032;-69
2022/01/12 11:43:30;;;;;;;21.73;13.93;;;2.50;70.50;;;;;;4976284;28;20031;-69
2022/01/12 11:46:14;;;;;;;22.27;13.82;;;2.50;71.00;;;;;;4972142;28;20027;-69
2022/01/12 11:48:47;;;;;;;25.40;15.77;;;2.60;71.10;;;;;;4976995;28;20109;-69
2022/01/12 11:51:16;;;;;;;25.80;16.10;;;2.60;70.60;;;;;;4985503;28;20361;-70
2022/01/12 11:53:54;;;;;;;27.30;17.15;;;2.60;70.30;;;;;;4972582;28;20056;-68
2022/01/12 11:56:24;;;;;;;26.00;15.60;;;2.50;69.60;;;;;;4974162;28;20117;-70
2022/01/12 11:58:54;;;;;;;27.35;15.38;;;2.50;70.00;;;;;;4973848;28;20403;-68
2022/01/12 12:01:22;;;;;;;25.17;14.90;;;2.50;70.50;;;;;;4975314;28;20189;-69
2022/01/12 12:04:01;;;;;;;22.98;14.57;;;2.40;70.30;;;;;;4980316;28;20405;-69
2022/01/12 12:06:28;;;;;;;29.45;16.83;;;2.40;70.30;;;;;;4974607;28;20043;-69
2022/01/12 12:09:04;;;;;;;22.85;14.48;;;2.40;70.60;;;;;;4973297;28;20342;-68
2022/01/12 12:11:31;;;;;;;24.90;15.90;;;2.40;71.10;;;;;;4973383;28;20134;-68
2022/01/12 12:14:05;;;;;;;28.13;15.27;;;2.40;71.50;;;;;;4973552;28;20646;-67
2022/01/12 12:16:31;;;;;;;29.27;17.33;;;2.50;71.50;;;;;;4970243;28;20077;-67
2022/01/12 12:18:57;;;;;;;28.65;16.77;;;2.50;71.20;;;;;;4989539;28;20520;-71
2022/01/12 12:21:24;;;;;;;26.67;16.08;;;2.60;70.50;;;;;;4973459;28;20038;-71
2022/01/12 12:23:49;;;;;;;25.58;15.73;;;2.60;70.80;;;;;;4976546;28;20520;-69
2022/01/12 12:26:18;;;;;;;29.48;15.90;;;2.50;70.80;;;;;;4973315;28;20065;-69
2022/01/12 12:28:52;;;;;;;25.90;16.45;;;2.50;71.20;;;;;;4972321;28;20525;-68
2022/01/12 12:31:26;;;;;;;26.23;15.27;;;2.50;71.20;;;;;;4972999;28;20045;-69
2022/01/12 12:34:05;;;;;;;27.42;16.83;;;2.60;71.10;;;;;;4975116;28;20042;-69
2022/01/12 12:36:32;;;;;;;25.88;16.08;;;2.50;70.40;;;;;;4973020;28;20088;-69
2022/01/12 12:39:12;;;;;;;24.33;14.93;;;2.60;71.00;;;;;;4978282;28;20108;-69
2022/01/12 12:41:40;;;;;;;28.13;17.83;;;2.50;71.00;;;;;;4980432;28;20033;-69
2022/01/12 12:44:18;;;;;;;28.60;17.55;;;2.50;72.00;;;;;;4976773;28;20519;-69
2022/01/12 12:46:44;;;;;;;28.33;17.85;;;2.50;70.50;;;;;;4971211;28;20038;-69
2022/01/12 12:49:09;;;;;;;25.88;16.40;;;2.50;70.00;;;;;;4976432;28;20080;-69
2022/01/12 12:51:35;;;;;;;28.27;17.40;;;2.50;70.10;;;;;;4973086;28;20034;-70
2022/01/12 12:54:00;;;;;;;27.13;15.90;;;2.40;70.70;;;;;;4974907;28;20038;-70
2022/01/12 12:56:28;;;;;;;28.77;16.00;;;2.30;70.10;;;;;;4970976;28;20543;-68
2022/01/12 12:58:57;;;;;;;28.17;16.75;;;2.30;70.90;;;;;;4972734;28;20042;-69
2022/01/12 13:01:26;;;;;;;26.52;15.98;;;2.30;71.30;;;;;;4974034;28;20027;-69
2022/01/12 13:04:02;;;;;;;27.20;16.70;;;2.30;71.30;;;;;;4980779;28;20062;-69
2022/01/12 13:06:35;;;;;;;27.35;17.08;;;2.30;71.00;;;;;;4980443;28;20077;-68
2022/01/12 13:09:07;;;;;;;26.58;16.55;;;2.30;71.20;;;;;;4980067;28;20030;-69
2022/01/12 13:11:38;;;;;;;27.88;16.17;;;2.30;71.20;;;;;;4980522;28;20169;-71
2022/01/12 13:14:06;;;;;;;26.52;17.17;;;2.30;71.40;;;;;;4979364;28;20034;-69
2022/01/12 13:16:32;;;;;;;27.33;15.75;;;2.30;71.50;;;;;;4979415;28;20041;-69
2022/01/12 13:19:07;;;;;;;26.65;16.38;;;2.40;71.80;;;;;;4980133;28;20035;-69
2022/01/12 13:21:34;;;;;;;;;;;2.30;71.70;;;;;;4984955;28;20046;-68
2022/01/12 13:24:00;;;;;;;26.90;15.90;;;2.40;71.50;;;;;;4980247;28;20427;-68
2022/01/12 13:26:31;;;;;;;29.65;16.65;;;2.40;71.60;;;;;;4978970;28;20126;-69
2022/01/12 13:29:00;;;;;;;28.88;17.60;;;2.40;71.50;;;;;;4979437;28;20042;-71
2022/01/12 13:31:27;;;;;;;28.25;17.27;;;2.40;71.20;;;;;;4979958;28;20185;-69
2022/01/12 13:33:53;;;;;;;26.40;16.50;;;2.40;71.10;;;;;;4979723;28;20038;-69
2022/01/12 13:36:20;;;;;;;29.48;17.73;;;2.40;71.20;;;;;;4979257;28;20506;-69
2022/01/12 13:39:07;;;;;;;29.05;16.67;;;2.40;71.00;;;;;;4979262;28;20050;-69
2022/01/12 13:41:38;;;;;;;29.25;17.05;;;2.40;70.90;;;;;;4977913;28;20035;-69
2022/01/12 13:44:10;;;;;;;29.45;17.77;;;2.40;71.00;;;;;;4980329;28;20043;-69
2022/01/12 13:47:23;;;;;;;30.67;17.73;;;2.30;71.20;;;;;;4979712;28;20030;-69
2022/01/12 13:49:48;;;;;;;29.33;17.15;;;2.30;70.70;;;;;;4979015;28;20035;-69
2022/01/12 13:52:14;;;;;;;30.00;16.45;;;2.30;71.10;;;;;;4979233;28;20039;-70
2022/01/12 13:54:42;;;;;;;29.67;17.25;;;2.30;71.20;;;;;;4979032;28;20045;-70
2022/01/12 13:57:15;;;;;;;30.00;17.73;;;2.30;71.40;;;;;;4978869;28;20042;-69
2022/01/12 13:59:52;;;;;;;26.23;16.05;;;2.40;71.40;;;;;;4979891;28;20049;-70
2022/01/12 14:02:21;;;;;;;28.48;17.55;;;2.30;70.80;;;;;;4978046;28;20122;-69